sensor_id;sensor_type;location;lat;lon;timestamp;pressure;altitude;pressure_sealevel;temperature;humidity
70976;BME280;58635;51.198;6.010;2022-10-12T00:01:05;102332.91;;;11.22;55.85
70976;BME280;58635;51.198;6.010;2022-10-12T00:03:32;102336.47;;;11.21;55.84
70976;BME280;58635;51.198;6.010;2022-10-12T00:06:15;102335.66;;;11.21;55.66
70976;BME280;58635;51.198;6.010;2022-10-12T00:08:43;102336.81;;;11.18;56.08
70976;BME280;58635;51.198;6.010;2022-10-12T00:11:12;102341.00;;;11.19;56.01
70976;BME280;58635;51.198;6.010;2022-10-12T00:13:38;102337.78;;;11.17;56.13
70976;BME280;58635;51.198;6.010;2022-10-12T00:16:05;102339.56;;;11.17;56.08
70976;BME280;58635;51.198;6.010;2022-10-12T00:18:32;102334.38;;;11.17;56.20
70976;BME280;58635;51.198;6.010;2022-10-12T00:21:15;102338.91;;;11.15;56.16
70976;BME280;58635;51.198;6.010;2022-10-12T00:23:42;102335.66;;;11.12;56.59
70976;BME280;58635;51.198;6.010;2022-10-12T00:26:11;102335.66;;;11.12;56.27
70976;BME280;58635;51.198;6.010;2022-10-12T00:28:37;102338.41;;;11.11;56.19
70976;BME280;58635;51.198;6.010;2022-10-12T00:31:11;102336.78;;;11.10;56.36
70976;BME280;58635;51.198;6.010;2022-10-12T00:33:38;102338.56;;;11.09;56.19
70976;BME280;58635;51.198;6.010;2022-10-12T00:38:43;102338.22;;;11.04;56.15
70976;BME280;58635;51.198;6.010;2022-10-12T00:41:10;102335.81;;;11.03;56.30
70976;BME280;58635;51.198;6.010;2022-10-12T00:43:37;102335.13;;;11.01;56.34
70976;BME280;58635;51.198;6.010;2022-10-12T00:46:11;102336.78;;;11.02;56.41
70976;BME280;58635;51.198;6.010;2022-10-12T00:48:38;102333.69;;;10.98;56.38
70976;BME280;58635;51.198;6.010;2022-10-12T00:51:04;102333.03;;;10.96;56.26
70976;BME280;58635;51.198;6.010;2022-10-12T00:53:35;102333.03;;;10.96;56.22
70976;BME280;58635;51.198;6.010;2022-10-12T00:56:04;102331.25;;;10.97;56.16
70976;BME280;58635;51.198;6.010;2022-10-12T00:58:31;102321.88;;;10.96;56.20
70976;BME280;58635;51.198;6.010;2022-10-12T01:01:02;102323.81;;;10.94;56.30
70976;BME280;58635;51.198;6.010;2022-10-12T01:03:29;102320.56;;;10.92;56.35
70976;BME280;58635;51.198;6.010;2022-10-12T01:05:55;102313.25;;;10.87;56.32
70976;BME280;58635;51.198;6.010;2022-10-12T01:08:21;102311.00;;;10.84;56.40
70976;BME280;58635;51.198;6.010;2022-10-12T01:10:47;102307.75;;;10.82;56.44
70976;BME280;58635;51.198;6.010;2022-10-12T01:13:12;102310.34;;;10.82;56.44
70976;BME280;58635;51.198;6.010;2022-10-12T01:15:44;102311.31;;;10.81;56.44
70976;BME280;58635;51.198;6.010;2022-10-12T01:18:18;102312.28;;;10.80;56.44
70976;BME280;58635;51.198;6.010;2022-10-12T01:29:23;102311.94;;;10.75;56.60
70976;BME280;58635;51.198;6.010;2022-10-12T01:32:06;102310.47;;;10.72;56.66
70976;BME280;58635;51.198;6.010;2022-10-12T01:37:25;102306.25;;;10.71;56.65
70976;BME280;58635;51.198;6.010;2022-10-12T01:39:58;102312.41;;;10.70;56.59
70976;BME280;58635;51.198;6.010;2022-10-12T01:42:36;102313.22;;;10.71;56.66
70976;BME280;58635;51.198;6.010;2022-10-12T01:45:11;102321.94;;;10.70;56.77
70976;BME280;58635;51.198;6.010;2022-10-12T01:47:38;102309.97;;;10.69;56.75
70976;BME280;58635;51.198;6.010;2022-10-12T01:50:07;102304.81;;;10.69;56.62
70976;BME280;58635;51.198;6.010;2022-10-12T01:52:46;102301.41;;;10.68;56.83
70976;BME280;58635;51.198;6.010;2022-10-12T01:55:38;102305.13;;;10.66;56.83
70976;BME280;58635;51.198;6.010;2022-10-12T02:03:47;102303.16;;;10.60;56.80
70976;BME280;58635;51.198;6.010;2022-10-12T02:06:18;102296.34;;;10.59;56.73
70976;BME280;58635;51.198;6.010;2022-10-12T02:11:33;102290.69;;;10.55;56.70
70976;BME280;58635;51.198;6.010;2022-10-12T02:14:07;102283.91;;;10.54;56.63
70976;BME280;58635;51.198;6.010;2022-10-12T02:16:47;102287.59;;;10.51;56.74
70976;BME280;58635;51.198;6.010;2022-10-12T02:19:17;102279.97;;;10.50;56.70
70976;BME280;58635;51.198;6.010;2022-10-12T02:21:45;102287.91;;;10.48;56.74
70976;BME280;58635;51.198;6.010;2022-10-12T02:24:13;102289.03;;;10.46;56.75
70976;BME280;58635;51.198;6.010;2022-10-12T02:26:41;102284.00;;;10.44;56.86
70976;BME280;58635;51.198;6.010;2022-10-12T02:29:12;102281.59;;;10.43;56.83
70976;BME280;58635;51.198;6.010;2022-10-12T02:34:20;102259.88;;;10.36;56.84
70976;BME280;58635;51.198;6.010;2022-10-12T02:39:28;102270.53;;;10.33;56.62
70976;BME280;58635;51.198;6.010;2022-10-12T02:42:07;102275.06;;;10.31;56.96
70976;BME280;58635;51.198;6.010;2022-10-12T02:44:38;102275.19;;;10.29;56.93
70976;BME280;58635;51.198;6.010;2022-10-12T02:47:06;102260.66;;;10.28;56.92
70976;BME280;58635;51.198;6.010;2022-10-12T02:49:34;102261.63;;;10.27;56.96
70976;BME280;58635;51.198;6.010;2022-10-12T02:52:01;102271.16;;;10.27;57.01
70976;BME280;58635;51.198;6.010;2022-10-12T02:54:28;102266.94;;;10.25;56.95
70976;BME280;58635;51.198;6.010;2022-10-12T02:56:54;102272.13;;;10.25;57.00
70976;BME280;58635;51.198;6.010;2022-10-12T02:59:19;102256.91;;;10.22;57.04
70976;BME280;58635;51.198;6.010;2022-10-12T03:01:45;102263.06;;;10.21;57.16
70976;BME280;58635;51.198;6.010;2022-10-12T03:04:10;102258.81;;;10.20;56.91
70976;BME280;58635;51.198;6.010;2022-10-12T03:06:36;102253.00;;;10.18;57.12
70976;BME280;58635;51.198;6.010;2022-10-12T03:09:01;102250.69;;;10.15;57.21
70976;BME280;58635;51.198;6.010;2022-10-12T03:11:29;102258.47;;;10.15;57.07
70976;BME280;58635;51.198;6.010;2022-10-12T03:13:54;102253.59;;;10.12;56.82
70976;BME280;58635;51.198;6.010;2022-10-12T03:16:21;102249.41;;;10.11;56.96
70976;BME280;58635;51.198;6.010;2022-10-12T03:18:46;102255.69;;;10.09;56.94
70976;BME280;58635;51.198;6.010;2022-10-12T03:21:12;102259.38;;;10.06;57.03
70976;BME280;58635;51.198;6.010;2022-10-12T03:23:37;102257.75;;;10.05;57.20
70976;BME280;58635;51.198;6.010;2022-10-12T03:26:04;102257.09;;;10.03;57.13
70976;BME280;58635;51.198;6.010;2022-10-12T03:28:29;102248.69;;;10.01;57.25
70976;BME280;58635;51.198;6.010;2022-10-12T03:30:55;102248.03;;;9.99;57.27
70976;BME280;58635;51.198;6.010;2022-10-12T03:33:21;102249.00;;;9.98;57.07
70976;BME280;58635;51.198;6.010;2022-10-12T03:35:47;102247.41;;;9.97;57.33
70976;BME280;58635;51.198;6.010;2022-10-12T03:38:14;102246.59;;;9.96;57.25
70976;BME280;58635;51.198;6.010;2022-10-12T03:40:39;102246.75;;;9.95;57.25
70976;BME280;58635;51.198;6.010;2022-10-12T03:43:05;102245.09;;;9.94;57.07
70976;BME280;58635;51.198;6.010;2022-10-12T03:45:31;102241.69;;;9.93;57.18
70976;BME280;58635;51.198;6.010;2022-10-12T03:47:56;102237.50;;;9.92;57.18
70976;BME280;58635;51.198;6.010;2022-10-12T03:50:22;102239.28;;;9.92;57.18
70976;BME280;58635;51.198;6.010;2022-10-12T03:52:47;102237.66;;;9.91;57.28
70976;BME280;58635;51.198;6.010;2022-10-12T03:55:13;102240.41;;;9.89;57.25
70976;BME280;58635;51.198;6.010;2022-10-12T03:57:39;102231.84;;;9.89;57.28
70976;BME280;58635;51.198;6.010;2022-10-12T04:00:04;102227.47;;;9.89;57.24
70976;BME280;58635;51.198;6.010;2022-10-12T04:02:30;102236.19;;;9.88;57.24
70976;BME280;58635;51.198;6.010;2022-10-12T04:04:55;102239.75;;;9.87;57.36
70976;BME280;58635;51.198;6.010;2022-10-12T04:07:21;102224.41;;;9.86;57.26
70976;BME280;58635;51.198;6.010;2022-10-12T04:09:46;102231.34;;;9.85;57.36
70976;BME280;58635;51.198;6.010;2022-10-12T04:12:12;102234.88;;;9.84;57.27
70976;BME280;58635;51.198;6.010;2022-10-12T04:14:38;102234.19;;;9.82;57.22
70976;BME280;58635;51.198;6.010;2022-10-12T04:17:03;102234.66;;;9.78;57.35
70976;BME280;58635;51.198;6.010;2022-10-12T04:19:29;102242.56;;;9.76;57.28
70976;BME280;58635;51.198;6.010;2022-10-12T04:21:54;102234.03;;;9.76;57.27
70976;BME280;58635;51.198;6.010;2022-10-12T04:24:20;102237.06;;;9.71;57.24
70976;BME280;58635;51.198;6.010;2022-10-12T04:26:45;102234.13;;;9.66;57.27
70976;BME280;58635;51.198;6.010;2022-10-12T04:29:11;102235.22;;;9.63;57.39
70976;BME280;58635;51.198;6.010;2022-10-12T04:31:38;102234.56;;;9.61;57.30
70976;BME280;58635;51.198;6.010;2022-10-12T04:34:03;102235.53;;;9.60;57.53
70976;BME280;58635;51.198;6.010;2022-10-12T04:36:29;102237.44;;;9.58;57.56
70976;BME280;58635;51.198;6.010;2022-10-12T04:38:54;102233.25;;;9.57;57.60
70976;BME280;58635;51.198;6.010;2022-10-12T04:41:20;102232.59;;;9.55;57.46
70976;BME280;58635;51.198;6.010;2022-10-12T04:43:45;102236.13;;;9.54;57.47
70976;BME280;58635;51.198;6.010;2022-10-12T04:46:10;102236.28;;;9.53;57.49
70976;BME280;58635;51.198;6.010;2022-10-12T04:48:36;102234.00;;;9.50;57.38
70976;BME280;58635;51.198;6.010;2022-10-12T04:51:02;102235.94;;;9.48;57.52
70976;BME280;58635;51.198;6.010;2022-10-12T04:53:28;102234.28;;;9.47;57.50
70976;BME280;58635;51.198;6.010;2022-10-12T04:55:53;102234.59;;;9.44;57.73
70976;BME280;58635;51.198;6.010;2022-10-12T04:58:18;102229.75;;;9.41;57.60
70976;BME280;58635;51.198;6.010;2022-10-12T05:00:45;102240.06;;;9.41;57.47
70976;BME280;58635;51.198;6.010;2022-10-12T05:03:11;102235.88;;;9.40;57.54
70976;BME280;58635;51.198;6.010;2022-10-12T05:05:36;102233.28;;;9.40;57.42
70976;BME280;58635;51.198;6.010;2022-10-12T05:08:03;102233.44;;;9.38;57.49
70976;BME280;58635;51.198;6.010;2022-10-12T05:10:29;102235.38;;;9.36;57.59
70976;BME280;58635;51.198;6.010;2022-10-12T05:12:55;102228.56;;;9.35;57.59
70976;BME280;58635;51.198;6.010;2022-10-12T05:15:20;102233.88;;;9.33;57.49
70976;BME280;58635;51.198;6.010;2022-10-12T05:17:46;102233.22;;;9.31;57.55
70976;BME280;58635;51.198;6.010;2022-10-12T05:20:11;102223.84;;;9.30;57.54
70976;BME280;58635;51.198;6.010;2022-10-12T05:22:36;102226.59;;;9.29;57.60
70976;BME280;58635;51.198;6.010;2022-10-12T05:25:03;102228.19;;;9.30;57.71
70976;BME280;58635;51.198;6.010;2022-10-12T05:27:28;102231.75;;;9.29;57.56
70976;BME280;58635;51.198;6.010;2022-10-12T05:29:53;102229.31;;;9.27;57.61
70976;BME280;58635;51.198;6.010;2022-10-12T05:32:19;102230.28;;;9.26;57.69
70976;BME280;58635;51.198;6.010;2022-10-12T05:34:44;102233.66;;;9.27;57.63
70976;BME280;58635;51.198;6.010;2022-10-12T05:37:10;102225.94;;;9.27;57.56
70976;BME280;58635;51.198;6.010;2022-10-12T05:39:35;102226.06;;;9.25;57.62
70976;BME280;58635;51.198;6.010;2022-10-12T05:42:02;102236.56;;;9.24;57.64
70976;BME280;58635;51.198;6.010;2022-10-12T05:44:28;102233.97;;;9.24;57.72
70976;BME280;58635;51.198;6.010;2022-10-12T05:46:53;102227.16;;;9.23;57.83
70976;BME280;58635;51.198;6.010;2022-10-12T05:49:18;102233.28;;;9.22;57.85
70976;BME280;58635;51.198;6.010;2022-10-12T05:51:44;102226.34;;;9.22;57.82
70976;BME280;58635;51.198;6.010;2022-10-12T05:54:09;102228.13;;;9.22;57.77
70976;BME280;58635;51.198;6.010;2022-10-12T05:56:34;102231.66;;;9.21;57.84
70976;BME280;58635;51.198;6.010;2022-10-12T05:59:00;102228.44;;;9.19;57.71
70976;BME280;58635;51.198;6.010;2022-10-12T06:01:25;102231.00;;;9.19;57.80
70976;BME280;58635;51.198;6.010;2022-10-12T06:03:51;102226.00;;;9.17;57.35
70976;BME280;58635;51.198;6.010;2022-10-12T06:06:19;102232.13;;;9.16;57.82
70976;BME280;58635;51.198;6.010;2022-10-12T06:08:44;102224.53;;;9.15;57.69
70976;BME280;58635;51.198;6.010;2022-10-12T06:11:09;102229.03;;;9.13;57.74
70976;BME280;58635;51.198;6.010;2022-10-12T06:13:35;102227.28;;;9.13;57.81
70976;BME280;58635;51.198;6.010;2022-10-12T06:16:00;102230.81;;;9.12;57.72
70976;BME280;58635;51.198;6.010;2022-10-12T06:18:26;102217.91;;;9.12;57.80
70976;BME280;58635;51.198;6.010;2022-10-12T06:20:53;102219.53;;;9.13;57.77
70976;BME280;58635;51.198;6.010;2022-10-12T06:23:19;102223.72;;;9.14;57.80
70976;BME280;58635;51.198;6.010;2022-10-12T06:25:46;102223.56;;;9.16;57.90
70976;BME280;58635;51.198;6.010;2022-10-12T06:28:13;102221.66;;;9.18;57.71
70976;BME280;58635;51.198;6.010;2022-10-12T06:30:38;102223.94;;;9.21;57.91
70976;BME280;58635;51.198;6.010;2022-10-12T06:33:04;102219.28;;;9.24;57.78
70976;BME280;58635;51.198;6.010;2022-10-12T06:35:29;102226.72;;;9.27;57.75
70976;BME280;58635;51.198;6.010;2022-10-12T06:37:55;102220.44;;;9.30;57.76
70976;BME280;58635;51.198;6.010;2022-10-12T06:40:20;102222.72;;;9.33;57.76
70976;BME280;58635;51.198;6.010;2022-10-12T06:42:48;102222.44;;;9.36;57.73
70976;BME280;58635;51.198;6.010;2022-10-12T06:45:13;102227.97;;;9.41;57.72
70976;BME280;58635;51.198;6.010;2022-10-12T06:47:39;102213.94;;;9.44;57.80
70976;BME280;58635;51.198;6.010;2022-10-12T06:50:05;102211.88;;;9.47;58.27
70976;BME280;58635;51.198;6.010;2022-10-12T06:52:31;102209.81;;;9.51;57.81
70976;BME280;58635;51.198;6.010;2022-10-12T06:54:57;102200.78;;;9.55;57.76
70976;BME280;58635;51.198;6.010;2022-10-12T06:57:22;102216.50;;;9.61;57.77
70976;BME280;58635;51.198;6.010;2022-10-12T06:59:48;102212.63;;;9.65;57.60
70976;BME280;58635;51.198;6.010;2022-10-12T07:02:13;102217.06;;;9.73;57.65
70976;BME280;58635;51.198;6.010;2022-10-12T07:04:38;102212.72;;;9.82;57.54
70976;BME280;58635;51.198;6.010;2022-10-12T07:07:04;102215.34;;;9.90;57.84
70976;BME280;58635;51.198;6.010;2022-10-12T07:09:29;102223.97;;;9.99;57.83
70976;BME280;58635;51.198;6.010;2022-10-12T07:11:55;102216.09;;;10.08;57.54
70976;BME280;58635;51.198;6.010;2022-10-12T07:14:20;102219.53;;;10.17;57.50
70976;BME280;58635;51.198;6.010;2022-10-12T07:16:46;102216.84;;;10.27;57.67
70976;BME280;58635;51.198;6.010;2022-10-12T07:19:12;102225.94;;;10.39;57.67
70976;BME280;58635;51.198;6.010;2022-10-12T07:21:37;102226.63;;;10.49;57.41
70976;BME280;58635;51.198;6.010;2022-10-12T07:24:03;102231.50;;;10.60;57.53
70976;BME280;58635;51.198;6.010;2022-10-12T07:26:29;102231.38;;;10.70;57.68
70976;BME280;58635;51.198;6.010;2022-10-12T07:28:56;102227.69;;;10.80;57.62
70976;BME280;58635;51.198;6.010;2022-10-12T07:31:21;102227.84;;;10.87;57.43
70976;BME280;58635;51.198;6.010;2022-10-12T07:33:46;102228.66;;;10.96;57.50
70976;BME280;58635;51.198;6.010;2022-10-12T07:36:12;102225.28;;;11.03;57.56
70976;BME280;58635;51.198;6.010;2022-10-12T07:38:37;102223.50;;;11.12;57.42
70976;BME280;58635;51.198;6.010;2022-10-12T07:41:03;102225.63;;;11.17;57.61
70976;BME280;58635;51.198;6.010;2022-10-12T07:43:30;102226.72;;;11.22;57.86
70976;BME280;58635;51.198;6.010;2022-10-12T07:45:55;102219.31;;;11.27;57.84
70976;BME280;58635;51.198;6.010;2022-10-12T07:48:21;102216.03;;;11.33;57.77
70976;BME280;58635;51.198;6.010;2022-10-12T07:50:48;102216.22;;;11.40;58.12
70976;BME280;58635;51.198;6.010;2022-10-12T07:53:14;102210.19;;;11.48;57.96
70976;BME280;58635;51.198;6.010;2022-10-12T07:55:39;102206.31;;;11.52;57.80
70976;BME280;58635;51.198;6.010;2022-10-12T07:58:05;102201.44;;;11.57;57.80
70976;BME280;58635;51.198;6.010;2022-10-12T08:00:30;102212.44;;;11.67;58.02
70976;BME280;58635;51.198;6.010;2022-10-12T08:02:57;102214.38;;;11.73;57.80
70976;BME280;58635;51.198;6.010;2022-10-12T08:05:23;102210.16;;;11.80;57.96
70976;BME280;58635;51.198;6.010;2022-10-12T08:07:50;102211.31;;;11.86;58.10
70976;BME280;58635;51.198;6.010;2022-10-12T08:10:16;102210.44;;;11.93;57.63
70976;BME280;58635;51.198;6.010;2022-10-12T08:12:43;102219.19;;;12.00;57.28
70976;BME280;58635;51.198;6.010;2022-10-12T08:15:10;102227.09;;;12.07;57.58
70976;BME280;58635;51.198;6.010;2022-10-12T08:17:36;102228.41;;;12.11;57.91
70976;BME280;58635;51.198;6.010;2022-10-12T08:20:02;102231.78;;;12.12;57.96
70976;BME280;58635;51.198;6.010;2022-10-12T08:22:27;102228.84;;;12.15;57.73
70976;BME280;58635;51.198;6.010;2022-10-12T08:24:53;102236.28;;;12.18;57.51
70976;BME280;58635;51.198;6.010;2022-10-12T08:27:18;102228.34;;;12.19;57.42
70976;BME280;58635;51.198;6.010;2022-10-12T08:29:43;102233.38;;;12.21;57.28
70976;BME280;58635;51.198;6.010;2022-10-12T08:32:09;102236.97;;;12.20;57.58
70976;BME280;58635;51.198;6.010;2022-10-12T08:34:34;102232.59;;;12.20;57.64
70976;BME280;58635;51.198;6.010;2022-10-12T08:36:59;102232.41;;;12.22;57.63
70976;BME280;58635;51.198;6.010;2022-10-12T08:39:25;102227.84;;;12.24;58.01
70976;BME280;58635;51.198;6.010;2022-10-12T08:44:38;102221.50;;;12.26;57.84
70976;BME280;58635;51.198;6.010;2022-10-12T08:49:59;102221.50;;;12.35;57.78
70976;BME280;58635;51.198;6.010;2022-10-12T08:52:33;102213.81;;;12.41;57.53
70976;BME280;58635;51.198;6.010;2022-10-12T08:55:24;102221.91;;;12.46;58.00
70976;BME280;58635;51.198;6.010;2022-10-12T08:57:53;102225.16;;;12.48;57.91
70976;BME280;58635;51.198;6.010;2022-10-12T09:00:18;102215.41;;;12.50;57.79
70976;BME280;58635;51.198;6.010;2022-10-12T09:05:42;102224.31;;;12.56;57.63
70976;BME280;58635;51.198;6.010;2022-10-12T09:08:43;102227.53;;;12.58;57.64
70976;BME280;58635;51.198;6.010;2022-10-12T09:13:47;102228.75;;;12.70;57.95
70976;BME280;58635;51.198;6.010;2022-10-12T09:16:26;102236.66;;;12.77;57.87
70976;BME280;58635;51.198;6.010;2022-10-12T09:19:08;102223.81;;;12.83;57.78
70976;BME280;58635;51.198;6.010;2022-10-12T09:21:36;102219.75;;;12.81;57.90
70976;BME280;58635;51.198;6.010;2022-10-12T09:24:11;102215.97;;;12.92;58.03
70976;BME280;58635;51.198;6.010;2022-10-12T09:26:39;102225.13;;;13.02;58.05
70976;BME280;58635;51.198;6.010;2022-10-12T09:29:24;102226.66;;;13.11;58.02
70976;BME280;58635;51.198;6.010;2022-10-12T09:34:41;102215.59;;;13.17;58.26
70976;BME280;58635;51.198;6.010;2022-10-12T09:37:12;102212.66;;;13.21;58.19
70976;BME280;58635;51.198;6.010;2022-10-12T09:39:42;102211.00;;;13.28;58.14
70976;BME280;58635;51.198;6.010;2022-10-12T09:42:09;102215.09;;;13.37;58.08
70976;BME280;58635;51.198;6.010;2022-10-12T09:44:39;102225.63;;;13.43;58.19
70976;BME280;58635;51.198;6.010;2022-10-12T09:47:23;102224.91;;;13.50;58.05
70976;BME280;58635;51.198;6.010;2022-10-12T09:49:50;102217.41;;;13.55;58.00
70976;BME280;58635;51.198;6.010;2022-10-12T09:52:21;102222.66;;;13.61;57.71
70976;BME280;58635;51.198;6.010;2022-10-12T09:54:50;102213.56;;;13.65;57.63
70976;BME280;58635;51.198;6.010;2022-10-12T09:57:20;102221.78;;;13.69;57.63
70976;BME280;58635;51.198;6.010;2022-10-12T09:59:47;102216.69;;;13.75;57.40
70976;BME280;58635;51.198;6.010;2022-10-12T10:02:20;102225.19;;;13.84;57.32
70976;BME280;58635;51.198;6.010;2022-10-12T10:04:48;102221.72;;;13.92;57.03
70976;BME280;58635;51.198;6.010;2022-10-12T10:07:28;102226.81;;;14.00;57.01
70976;BME280;58635;51.198;6.010;2022-10-12T10:13:01;102214.16;;;14.12;56.85
70976;BME280;58635;51.198;6.010;2022-10-12T10:15:34;102213.25;;;14.19;56.75
70976;BME280;58635;51.198;6.010;2022-10-12T10:18:23;102214.13;;;14.26;56.68
70976;BME280;58635;51.198;6.010;2022-10-12T10:20:55;102206.56;;;14.31;56.89
70976;BME280;58635;51.198;6.010;2022-10-12T10:23:27;102210.88;;;14.39;56.67
70976;BME280;58635;51.198;6.010;2022-10-12T10:28:28;102214.22;;;14.48;56.43
70976;BME280;58635;51.198;6.010;2022-10-12T10:30:56;102211.44;;;14.49;56.47
70976;BME280;58635;51.198;6.010;2022-10-12T10:33:22;102211.06;;;14.52;56.45
70976;BME280;58635;51.198;6.010;2022-10-12T10:35:54;102203.94;;;14.61;56.23
70976;BME280;58635;51.198;6.010;2022-10-12T10:38:21;102204.97;;;14.67;56.20
70976;BME280;58635;51.198;6.010;2022-10-12T10:40:51;102202.06;;;14.76;56.19
70976;BME280;58635;51.198;6.010;2022-10-12T10:43:27;102198.53;;;14.84;56.05
70976;BME280;58635;51.198;6.010;2022-10-12T10:45:56;102193.38;;;14.90;56.03
70976;BME280;58635;51.198;6.010;2022-10-12T10:48:39;102188.84;;;14.99;55.96
70976;BME280;58635;51.198;6.010;2022-10-12T10:51:10;102181.91;;;15.06;55.88
70976;BME280;58635;51.198;6.010;2022-10-12T10:53:45;102191.22;;;15.15;55.54
70976;BME280;58635;51.198;6.010;2022-10-12T10:56:15;102184.41;;;15.21;55.76
70976;BME280;58635;51.198;6.010;2022-10-12T10:58:44;102187.25;;;15.26;55.49
70976;BME280;58635;51.198;6.010;2022-10-12T11:04:15;102178.09;;;15.37;55.24
70976;BME280;58635;51.198;6.010;2022-10-12T11:06:41;102184.38;;;15.42;55.25
70976;BME280;58635;51.198;6.010;2022-10-12T11:11:37;102175.81;;;15.55;54.96
70976;BME280;58635;51.198;6.010;2022-10-12T11:14:14;102176.66;;;15.62;54.48
70976;BME280;58635;51.198;6.010;2022-10-12T11:17:24;102174.06;;;15.62;54.57
70976;BME280;58635;51.198;6.010;2022-10-12T11:23:18;102180.53;;;15.73;54.03
70976;BME280;58635;51.198;6.010;2022-10-12T11:25:54;102178.97;;;15.78;54.14
70976;BME280;58635;51.198;6.010;2022-10-12T11:28:27;102175.38;;;15.86;53.81
70976;BME280;58635;51.198;6.010;2022-10-12T11:30:55;102180.66;;;15.93;53.53
70976;BME280;58635;51.198;6.010;2022-10-12T11:33:24;102173.25;;;16.03;53.21
70976;BME280;58635;51.198;6.010;2022-10-12T11:35:52;102173.09;;;16.11;52.90
70976;BME280;58635;51.198;6.010;2022-10-12T11:38:22;102169.09;;;16.22;52.51
70976;BME280;58635;51.198;6.010;2022-10-12T11:43:29;102163.75;;;16.50;52.08
70976;BME280;58635;51.198;6.010;2022-10-12T11:46:00;102157.75;;;16.62;52.04
70976;BME280;58635;51.198;6.010;2022-10-12T11:48:32;102151.34;;;16.72;51.82
70976;BME280;58635;51.198;6.010;2022-10-12T11:50:59;102139.50;;;16.82;51.58
70976;BME280;58635;51.198;6.010;2022-10-12T11:53:43;102139.69;;;16.94;51.51
70976;BME280;58635;51.198;6.010;2022-10-12T11:56:33;102135.84;;;17.03;51.38
70976;BME280;58635;51.198;6.010;2022-10-12T11:59:11;102122.97;;;17.15;51.07
70976;BME280;58635;51.198;6.010;2022-10-12T12:04:29;102114.88;;;17.43;50.94
70976;BME280;58635;51.198;6.010;2022-10-12T12:09:47;102108.75;;;17.69;50.40
70976;BME280;58635;51.198;6.010;2022-10-12T12:12:25;102097.00;;;17.85;50.28
70976;BME280;58635;51.198;6.010;2022-10-12T12:20:02;102092.22;;;18.13;49.11
70976;BME280;58635;51.198;6.010;2022-10-12T12:22:47;102085.91;;;18.21;49.39
70976;BME280;58635;51.198;6.010;2022-10-12T12:28:21;102077.00;;;18.28;48.45
70976;BME280;58635;51.198;6.010;2022-10-12T12:30:59;102078.81;;;18.28;48.75
70976;BME280;58635;51.198;6.010;2022-10-12T12:33:30;102071.59;;;18.23;48.32
70976;BME280;58635;51.198;6.010;2022-10-12T12:36:02;102072.34;;;18.30;48.51
70976;BME280;58635;51.198;6.010;2022-10-12T12:41:12;102070.38;;;18.51;48.51
70976;BME280;58635;51.198;6.010;2022-10-12T12:43:51;102067.44;;;18.65;47.95
70976;BME280;58635;51.198;6.010;2022-10-12T12:46:18;102065.38;;;18.74;47.89
70976;BME280;58635;51.198;6.010;2022-10-12T12:51:14;102071.63;;;18.91;47.43
70976;BME280;58635;51.198;6.010;2022-10-12T12:53:50;102056.88;;;18.97;47.31
70976;BME280;58635;51.198;6.010;2022-10-12T12:56:23;102062.59;;;19.06;47.39
70976;BME280;58635;51.198;6.010;2022-10-12T13:07:03;102058.41;;;19.23;45.77
70976;BME280;58635;51.198;6.010;2022-10-12T13:09:35;102055.78;;;19.23;45.62
70976;BME280;58635;51.198;6.010;2022-10-12T13:12:29;102055.91;;;19.28;44.78
70976;BME280;58635;51.198;6.010;2022-10-12T13:18:10;102043.97;;;19.32;44.74
70976;BME280;58635;51.198;6.010;2022-10-12T13:20:45;102044.53;;;19.34;44.23
70976;BME280;58635;51.198;6.010;2022-10-12T13:23:18;102044.09;;;19.37;44.36
70976;BME280;58635;51.198;6.010;2022-10-12T13:25:50;102044.25;;;19.42;43.97
70976;BME280;58635;51.198;6.010;2022-10-12T13:28:21;102047.22;;;19.46;44.29
70976;BME280;58635;51.198;6.010;2022-10-12T13:36:31;102032.34;;;19.58;44.29
70976;BME280;58635;51.198;6.010;2022-10-12T13:38:59;102035.91;;;19.64;44.11
70976;BME280;58635;51.198;6.010;2022-10-12T13:41:26;102030.78;;;19.69;44.17
70976;BME280;58635;51.198;6.010;2022-10-12T13:44:00;102024.88;;;19.73;44.13
70976;BME280;58635;51.198;6.010;2022-10-12T13:46:38;102033.09;;;19.77;43.82
70976;BME280;58635;51.198;6.010;2022-10-12T13:51:48;102023.84;;;19.74;43.36
70976;BME280;58635;51.198;6.010;2022-10-12T13:54:22;102011.66;;;19.80;43.19
70976;BME280;58635;51.198;6.010;2022-10-12T13:56:52;102005.50;;;19.86;43.26
70976;BME280;58635;51.198;6.010;2022-10-12T13:59:21;102008.03;;;19.93;43.20
70976;BME280;58635;51.198;6.010;2022-10-12T14:01:55;102007.13;;;19.99;43.29
70976;BME280;58635;51.198;6.010;2022-10-12T14:04:22;101998.81;;;20.02;43.06
70976;BME280;58635;51.198;6.010;2022-10-12T14:07:12;102002.22;;;20.02;42.88
70976;BME280;58635;51.198;6.010;2022-10-12T14:09:43;102002.88;;;19.98;42.80
70976;BME280;58635;51.198;6.010;2022-10-12T14:12:10;102012.94;;;19.89;43.03
70976;BME280;58635;51.198;6.010;2022-10-12T14:14:37;102021.94;;;19.81;42.99
70976;BME280;58635;51.198;6.010;2022-10-12T14:17:04;102015.16;;;19.74;43.10
70976;BME280;58635;51.198;6.010;2022-10-12T14:19:49;102012.41;;;19.69;43.13
70976;BME280;58635;51.198;6.010;2022-10-12T14:22:25;102007.47;;;19.61;43.21
70976;BME280;58635;51.198;6.010;2022-10-12T14:27:32;102010.47;;;19.46;43.54
70976;BME280;58635;51.198;6.010;2022-10-12T14:30:15;102001.88;;;19.39;43.38
70976;BME280;58635;51.198;6.010;2022-10-12T14:32:42;102005.63;;;19.31;43.68
70976;BME280;58635;51.198;6.010;2022-10-12T14:37:44;101990.88;;;19.18;43.31
70976;BME280;58635;51.198;6.010;2022-10-12T14:40:39;101993.63;;;19.05;43.37
70976;BME280;58635;51.198;6.010;2022-10-12T14:43:18;101995.53;;;18.98;43.65
70976;BME280;58635;51.198;6.010;2022-10-12T14:45:44;102002.66;;;18.91;43.68